sensor_id;sensor_type;location;lat;lon;timestamp;pressure;altitude;pressure_sealevel;temperature;humidity
59043;BME280;44826;51.596;5.624;2023-02-04T00:00:38;103162.16;;;6.51;88.21
59043;BME280;44826;51.596;5.624;2023-02-04T00:03:03;103153.38;;;6.46;88.59
59043;BME280;44826;51.596;5.624;2023-02-04T00:05:29;103161.25;;;6.49;88.12
59043;BME280;44826;51.596;5.624;2023-02-04T00:07:54;103156.88;;;6.46;88.41
59043;BME280;44826;51.596;5.624;2023-02-04T00:10:19;103157.63;;;6.44;88.48
59043;BME280;44826;51.596;5.624;2023-02-04T00:12:45;103159.34;;;6.43;88.99
59043;BME280;44826;51.596;5.624;2023-02-04T00:15:10;103164.53;;;6.43;88.81
59043;BME280;44826;51.596;5.624;2023-02-04T00:17:35;103167.13;;;6.43;88.85
59043;BME280;44826;51.596;5.624;2023-02-04T00:20:01;103169.59;;;6.40;89.01
59043;BME280;44826;51.596;5.624;2023-02-04T00:22:26;103166.19;;;6.41;89.25
59043;BME280;44826;51.596;5.624;2023-02-04T00:24:53;103173.94;;;6.41;89.23
59043;BME280;44826;51.596;5.624;2023-02-04T00:27:18;103179.94;;;6.40;89.13
59043;BME280;44826;51.596;5.624;2023-02-04T00:29:43;103171.31;;;6.40;89.33
59043;BME280;44826;51.596;5.624;2023-02-04T00:32:08;103179.94;;;6.40;89.04
59043;BME280;44826;51.596;5.624;2023-02-04T00:34:34;103176.44;;;6.38;89.04
59043;BME280;44826;51.596;5.624;2023-02-04T00:36:59;103175.50;;;6.36;89.17
59043;BME280;44826;51.596;5.624;2023-02-04T00:39:25;103176.41;;;6.36;89.08
59043;BME280;44826;51.596;5.624;2023-02-04T00:41:50;103176.34;;;6.35;89.44
59043;BME280;44826;51.596;5.624;2023-02-04T00:44:15;103172.00;;;6.34;89.40
59043;BME280;44826;51.596;5.624;2023-02-04T00:46:41;103175.41;;;6.33;89.48
59043;BME280;44826;51.596;5.624;2023-02-04T00:49:08;103172.81;;;6.33;89.65
59043;BME280;44826;51.596;5.624;2023-02-04T00:51:35;103184.03;;;6.32;89.52
59043;BME280;44826;51.596;5.624;2023-02-04T00:54:01;103170.22;;;6.31;89.41
59043;BME280;44826;51.596;5.624;2023-02-04T00:56:26;103171.00;;;6.29;89.87
59043;BME280;44826;51.596;5.624;2023-02-04T00:58:52;103176.06;;;6.26;89.67
59043;BME280;44826;51.596;5.624;2023-02-04T01:01:17;103172.56;;;6.23;90.01
59043;BME280;44826;51.596;5.624;2023-02-04T01:03:42;103175.06;;;6.20;90.30
59043;BME280;44826;51.596;5.624;2023-02-04T01:06:07;103174.94;;;6.17;90.23
59043;BME280;44826;51.596;5.624;2023-02-04T01:08:33;103180.91;;;6.15;90.07
59043;BME280;44826;51.596;5.624;2023-02-04T01:10:58;103189.47;;;6.12;90.18
59043;BME280;44826;51.596;5.624;2023-02-04T01:13:23;103194.53;;;6.09;90.33
59043;BME280;44826;51.596;5.624;2023-02-04T01:15:49;103203.13;;;6.08;90.25
59043;BME280;44826;51.596;5.624;2023-02-04T01:18:14;103207.31;;;6.04;89.79
59043;BME280;44826;51.596;5.624;2023-02-04T01:20:39;103210.53;;;5.99;90.12
59043;BME280;44826;51.596;5.624;2023-02-04T01:23:05;103213.03;;;5.96;90.06
59043;BME280;44826;51.596;5.624;2023-02-04T01:25:30;103205.91;;;5.88;90.34
59043;BME280;44826;51.596;5.624;2023-02-04T01:27:55;103207.44;;;5.83;90.09
59043;BME280;44826;51.596;5.624;2023-02-04T01:30:20;103209.06;;;5.80;90.52
59043;BME280;44826;51.596;5.624;2023-02-04T01:32:46;103216.69;;;5.75;90.61
59043;BME280;44826;51.596;5.624;2023-02-04T01:35:11;103217.41;;;5.71;90.34
59043;BME280;44826;51.596;5.624;2023-02-04T01:37:36;103217.28;;;5.68;90.42
59043;BME280;44826;51.596;5.624;2023-02-04T01:40:02;103221.47;;;5.64;91.04
59043;BME280;44826;51.596;5.624;2023-02-04T01:42:27;103234.34;;;5.62;90.93
59043;BME280;44826;51.596;5.624;2023-02-04T01:44:53;103223.97;;;5.61;91.01
59043;BME280;44826;51.596;5.624;2023-02-04T01:47:20;103226.53;;;5.61;91.14
59043;BME280;44826;51.596;5.624;2023-02-04T01:49:49;103226.50;;;5.59;91.56
59043;BME280;44826;51.596;5.624;2023-02-04T01:52:16;103229.91;;;5.58;91.59
59043;BME280;44826;51.596;5.624;2023-02-04T01:54:41;103239.31;;;5.56;91.61
59043;BME280;44826;51.596;5.624;2023-02-04T01:57:12;103241.84;;;5.55;91.78
59043;BME280;44826;51.596;5.624;2023-02-04T01:59:38;103247.75;;;5.52;91.96
59043;BME280;44826;51.596;5.624;2023-02-04T02:02:42;103241.66;;;5.50;91.66
59043;BME280;44826;51.596;5.624;2023-02-04T02:05:10;103242.50;;;5.49;91.49
59043;BME280;44826;51.596;5.624;2023-02-04T02:07:37;103243.28;;;5.46;92.00
59043;BME280;44826;51.596;5.624;2023-02-04T02:10:04;103256.97;;;5.44;92.34
59043;BME280;44826;51.596;5.624;2023-02-04T02:12:30;103256.78;;;5.39;91.71
59043;BME280;44826;51.596;5.624;2023-02-04T02:14:55;103261.09;;;5.39;91.84
59043;BME280;44826;51.596;5.624;2023-02-04T02:17:21;103255.81;;;5.36;92.38
59043;BME280;44826;51.596;5.624;2023-02-04T02:19:46;103257.44;;;5.34;92.67
59043;BME280;44826;51.596;5.624;2023-02-04T02:22:17;103270.44;;;5.35;92.97
59043;BME280;44826;51.596;5.624;2023-02-04T02:24:45;103269.53;;;5.35;92.70
59043;BME280;44826;51.596;5.624;2023-02-04T02:27:11;103266.19;;;5.37;93.14
59043;BME280;44826;51.596;5.624;2023-02-04T02:29:39;103263.66;;;5.39;93.87
59043;BME280;44826;51.596;5.624;2023-02-04T02:32:07;103264.59;;;5.41;93.43
59043;BME280;44826;51.596;5.624;2023-02-04T02:34:33;103259.47;;;5.42;93.83
59043;BME280;44826;51.596;5.624;2023-02-04T02:37:00;103262.94;;;5.43;93.69
59043;BME280;44826;51.596;5.624;2023-02-04T02:39:26;103268.13;;;5.43;93.96
59043;BME280;44826;51.596;5.624;2023-02-04T02:41:52;103274.09;;;5.42;93.59
59043;BME280;44826;51.596;5.624;2023-02-04T02:44:18;103271.53;;;5.42;93.82
59043;BME280;44826;51.596;5.624;2023-02-04T02:46:44;103262.84;;;5.40;93.43
59043;BME280;44826;51.596;5.624;2023-02-04T02:49:14;103262.84;;;5.40;93.46
59043;BME280;44826;51.596;5.624;2023-02-04T02:51:40;103266.25;;;5.39;93.65
59043;BME280;44826;51.596;5.624;2023-02-04T02:54:14;103269.66;;;5.38;93.48
59043;BME280;44826;51.596;5.624;2023-02-04T02:56:43;103272.19;;;5.36;93.88
59043;BME280;44826;51.596;5.624;2023-02-04T02:59:13;103275.59;;;5.35;93.74
59043;BME280;44826;51.596;5.624;2023-02-04T03:01:39;103270.44;;;5.35;93.81
59043;BME280;44826;51.596;5.624;2023-02-04T03:04:04;103267.78;;;5.34;93.84
59043;BME280;44826;51.596;5.624;2023-02-04T03:06:30;103265.94;;;5.29;94.16
59043;BME280;44826;51.596;5.624;2023-02-04T03:08:55;103263.97;;;5.24;93.71
59043;BME280;44826;51.596;5.624;2023-02-04T03:11:21;103267.34;;;5.21;93.60
59043;BME280;44826;51.596;5.624;2023-02-04T03:13:47;103275.78;;;5.17;93.80
59043;BME280;44826;51.596;5.624;2023-02-04T03:16:14;103281.66;;;5.13;93.64
59043;BME280;44826;51.596;5.624;2023-02-04T03:18:39;103278.06;;;5.08;93.29
59043;BME280;44826;51.596;5.624;2023-02-04T03:21:05;103275.34;;;5.05;93.74
59043;BME280;44826;51.596;5.624;2023-02-04T03:23:32;103286.34;;;4.99;94.21
59043;BME280;44826;51.596;5.624;2023-02-04T03:25:59;103285.41;;;4.97;93.98
59043;BME280;44826;51.596;5.624;2023-02-04T03:28:25;103293.06;;;4.95;94.15
59043;BME280;44826;51.596;5.624;2023-02-04T03:30:51;103289.56;;;4.93;94.18
59043;BME280;44826;51.596;5.624;2023-02-04T03:33:23;103291.25;;;4.93;94.28
59043;BME280;44826;51.596;5.624;2023-02-04T03:35:50;103291.25;;;4.93;94.60
59043;BME280;44826;51.596;5.624;2023-02-04T03:38:16;103289.56;;;4.93;95.10
59043;BME280;44826;51.596;5.624;2023-02-04T03:40:41;103296.53;;;4.96;94.78
59043;BME280;44826;51.596;5.624;2023-02-04T03:43:06;103296.69;;;5.00;95.08
59043;BME280;44826;51.596;5.624;2023-02-04T03:45:31;103298.56;;;5.05;95.55
59043;BME280;44826;51.596;5.624;2023-02-04T03:47:57;103306.44;;;5.08;95.41
59043;BME280;44826;51.596;5.624;2023-02-04T03:50:22;103300.50;;;5.10;95.18
59043;BME280;44826;51.596;5.624;2023-02-04T03:52:47;103294.63;;;5.14;95.31
59043;BME280;44826;51.596;5.624;2023-02-04T03:55:14;103301.59;;;5.17;95.70
59043;BME280;44826;51.596;5.624;2023-02-04T03:57:39;103298.19;;;5.18;95.91
59043;BME280;44826;51.596;5.624;2023-02-04T04:00:05;103299.97;;;5.19;96.04
59043;BME280;44826;51.596;5.624;2023-02-04T04:02:30;103286.22;;;5.20;95.80
59043;BME280;44826;51.596;5.624;2023-02-04T04:04:56;103288.00;;;5.21;95.47
59043;BME280;44826;51.596;5.624;2023-02-04T04:07:21;103287.16;;;5.22;96.01
59043;BME280;44826;51.596;5.624;2023-02-04T04:09:46;103300.06;;;5.22;95.58
59043;BME280;44826;51.596;5.624;2023-02-04T04:12:11;103294.88;;;5.21;96.02
59043;BME280;44826;51.596;5.624;2023-02-04T04:14:37;103299.13;;;5.20;95.86
59043;BME280;44826;51.596;5.624;2023-02-04T04:17:02;103296.44;;;5.17;95.78
59043;BME280;44826;51.596;5.624;2023-02-04T04:19:27;103293.75;;;5.14;95.56
59043;BME280;44826;51.596;5.624;2023-02-04T04:21:52;103295.34;;;5.10;95.53
59043;BME280;44826;51.596;5.624;2023-02-04T04:24:18;103303.78;;;5.06;95.90
59043;BME280;44826;51.596;5.624;2023-02-04T04:26:43;103304.69;;;5.07;95.98
59043;BME280;44826;51.596;5.624;2023-02-04T04:29:08;103313.22;;;5.06;95.84
59043;BME280;44826;51.596;5.624;2023-02-04T04:31:33;103314.06;;;5.05;95.54
59043;BME280;44826;51.596;5.624;2023-02-04T04:33:59;103308.06;;;5.06;95.98
59043;BME280;44826;51.596;5.624;2023-02-04T04:36:26;103307.19;;;5.05;95.77
59043;BME280;44826;51.596;5.624;2023-02-04T04:38:51;103311.47;;;5.05;95.19
59043;BME280;44826;51.596;5.624;2023-02-04T04:41:16;103314.88;;;5.04;95.15
59043;BME280;44826;51.596;5.624;2023-02-04T04:43:41;103314.84;;;5.02;94.48
59043;BME280;44826;51.596;5.624;2023-02-04T04:46:07;103314.75;;;5.00;94.75
59043;BME280;44826;51.596;5.624;2023-02-04T04:48:32;103308.72;;;5.00;94.17
59043;BME280;44826;51.596;5.624;2023-02-04T04:50:57;103314.63;;;4.97;94.29
59043;BME280;44826;51.596;5.624;2023-02-04T04:53:22;103315.44;;;4.96;94.40
59043;BME280;44826;51.596;5.624;2023-02-04T04:55:48;103315.44;;;4.96;94.21
59043;BME280;44826;51.596;5.624;2023-02-04T04:58:13;103313.91;;;5.00;94.28
59043;BME280;44826;51.596;5.624;2023-02-04T05:00:38;103312.25;;;5.02;94.60
59043;BME280;44826;51.596;5.624;2023-02-04T05:03:03;103321.78;;;5.05;94.25
59043;BME280;44826;51.596;5.624;2023-02-04T05:05:29;103316.75;;;5.08;95.03
59043;BME280;44826;51.596;5.624;2023-02-04T05:07:54;103317.84;;;5.14;95.26
59043;BME280;44826;51.596;5.624;2023-02-04T05:10:19;103326.59;;;5.18;95.01
59043;BME280;44826;51.596;5.624;2023-02-04T05:12:45;103325.75;;;5.19;95.78
59043;BME280;44826;51.596;5.624;2023-02-04T05:15:10;103336.22;;;5.22;95.74
59043;BME280;44826;51.596;5.624;2023-02-04T05:17:35;103332.81;;;5.23;95.52
59043;BME280;44826;51.596;5.624;2023-02-04T05:20:01;103339.72;;;5.24;95.68
59043;BME280;44826;51.596;5.624;2023-02-04T05:22:26;103341.59;;;5.28;96.05
59043;BME280;44826;51.596;5.624;2023-02-04T05:24:51;103339.94;;;5.30;96.13
59043;BME280;44826;51.596;5.624;2023-02-04T05:27:16;103348.63;;;5.32;95.88
59043;BME280;44826;51.596;5.624;2023-02-04T05:29:42;103346.97;;;5.35;95.97
59043;BME280;44826;51.596;5.624;2023-02-04T05:32:07;103356.47;;;5.36;96.22
59043;BME280;44826;51.596;5.624;2023-02-04T05:34:32;103351.44;;;5.39;95.80
59043;BME280;44826;51.596;5.624;2023-02-04T05:36:57;103359.28;;;5.42;96.30
59043;BME280;44826;51.596;5.624;2023-02-04T05:39:23;103362.00;;;5.45;95.93
59043;BME280;44826;51.596;5.624;2023-02-04T05:41:48;103354.25;;;5.45;95.58
59043;BME280;44826;51.596;5.624;2023-02-04T05:44:13;103358.59;;;5.46;95.89
59043;BME280;44826;51.596;5.624;2023-02-04T05:46:39;103356.84;;;5.45;95.58
59043;BME280;44826;51.596;5.624;2023-02-04T05:49:04;103355.88;;;5.43;95.75
59043;BME280;44826;51.596;5.624;2023-02-04T05:51:30;103357.66;;;5.44;95.33
59043;BME280;44826;51.596;5.624;2023-02-04T05:53:55;103359.34;;;5.43;95.84
59043;BME280;44826;51.596;5.624;2023-02-04T05:56:20;103362.81;;;5.44;95.85
59043;BME280;44826;51.596;5.624;2023-02-04T05:58:46;103369.63;;;5.42;95.26
59043;BME280;44826;51.596;5.624;2023-02-04T06:01:11;103372.19;;;5.42;95.47
59043;BME280;44826;51.596;5.624;2023-02-04T06:03:36;103379.00;;;5.40;95.62
59043;BME280;44826;51.596;5.624;2023-02-04T06:06:01;103374.78;;;5.42;95.34
59043;BME280;44826;51.596;5.624;2023-02-04T06:08:27;103386.88;;;5.43;95.88
59043;BME280;44826;51.596;5.624;2023-02-04T06:10:52;103376.53;;;5.43;95.93
59043;BME280;44826;51.596;5.624;2023-02-04T06:13:17;103386.06;;;5.44;95.47
59043;BME280;44826;51.596;5.624;2023-02-04T06:15:43;103385.22;;;5.45;95.67
59043;BME280;44826;51.596;5.624;2023-02-04T06:18:08;103383.47;;;5.44;95.92
59043;BME280;44826;51.596;5.624;2023-02-04T06:20:33;103397.19;;;5.43;95.68
59043;BME280;44826;51.596;5.624;2023-02-04T06:22:59;103394.50;;;5.40;95.57
59043;BME280;44826;51.596;5.624;2023-02-04T06:25:24;103404.81;;;5.40;95.90
59043;BME280;44826;51.596;5.624;2023-02-04T06:27:50;103400.59;;;5.42;95.71
59043;BME280;44826;51.596;5.624;2023-02-04T06:30:16;103405.75;;;5.42;95.68
59043;BME280;44826;51.596;5.624;2023-02-04T06:32:42;103418.69;;;5.42;96.14
59043;BME280;44826;51.596;5.624;2023-02-04T06:35:08;103422.94;;;5.41;95.56
59043;BME280;44826;51.596;5.624;2023-02-04T06:37:33;103418.50;;;5.37;95.78
59043;BME280;44826;51.596;5.624;2023-02-04T06:39:59;103421.00;;;5.36;95.46
59043;BME280;44826;51.596;5.624;2023-02-04T06:42:24;103426.00;;;5.31;96.09
59043;BME280;44826;51.596;5.624;2023-02-04T06:44:50;103425.09;;;5.30;95.92
59043;BME280;44826;51.596;5.624;2023-02-04T06:47:16;103426.69;;;5.27;96.14
59043;BME280;44826;51.596;5.624;2023-02-04T06:49:41;103425.03;;;5.27;96.31
59043;BME280;44826;51.596;5.624;2023-02-04T06:52:07;103424.19;;;5.28;96.16
59043;BME280;44826;51.596;5.624;2023-02-04T06:54:32;103429.41;;;5.30;96.37
59043;BME280;44826;51.596;5.624;2023-02-04T06:56:58;103434.63;;;5.31;96.21
59043;BME280;44826;51.596;5.624;2023-02-04T06:59:31;103436.28;;;5.29;96.16
59043;BME280;44826;51.596;5.624;2023-02-04T07:01:57;103440.50;;;5.27;96.18
59043;BME280;44826;51.596;5.624;2023-02-04T07:04:22;103442.97;;;5.24;95.80
59043;BME280;44826;51.596;5.624;2023-02-04T07:06:47;103441.97;;;5.21;96.02
59043;BME280;44826;51.596;5.624;2023-02-04T07:09:12;103440.22;;;5.20;96.04
59043;BME280;44826;51.596;5.624;2023-02-04T07:11:38;103447.06;;;5.19;96.13
59043;BME280;44826;51.596;5.624;2023-02-04T07:14:03;103446.13;;;5.17;96.71
59043;BME280;44826;51.596;5.624;2023-02-04T07:16:28;103453.81;;;5.15;96.61
59043;BME280;44826;51.596;5.624;2023-02-04T07:18:53;103451.28;;;5.17;96.57
59043;BME280;44826;51.596;5.624;2023-02-04T07:21:19;103447.00;;;5.18;96.59
59043;BME280;44826;51.596;5.624;2023-02-04T07:23:44;103447.88;;;5.18;96.74
59043;BME280;44826;51.596;5.624;2023-02-04T07:26:09;103454.03;;;5.22;96.31
59043;BME280;44826;51.596;5.624;2023-02-04T07:28:35;103461.84;;;5.23;96.86
59043;BME280;44826;51.596;5.624;2023-02-04T07:31:01;103457.69;;;5.27;96.92
59043;BME280;44826;51.596;5.624;2023-02-04T07:33:26;103465.50;;;5.28;96.39
59043;BME280;44826;51.596;5.624;2023-02-04T07:35:51;103474.16;;;5.30;96.78
59043;BME280;44826;51.596;5.624;2023-02-04T07:38:16;103473.34;;;5.31;96.77
59043;BME280;44826;51.596;5.624;2023-02-04T07:40:42;103476.81;;;5.32;96.79
59043;BME280;44826;51.596;5.624;2023-02-04T07:43:07;103475.19;;;5.34;96.54
59043;BME280;44826;51.596;5.624;2023-02-04T07:45:32;103477.81;;;5.36;96.63
59043;BME280;44826;51.596;5.624;2023-02-04T07:47:57;103480.50;;;5.39;97.05
59043;BME280;44826;51.596;5.624;2023-02-04T07:50:23;103487.47;;;5.41;96.92
59043;BME280;44826;51.596;5.624;2023-02-04T07:52:48;103483.22;;;5.42;96.52
59043;BME280;44826;51.596;5.624;2023-02-04T07:55:13;103485.91;;;5.45;96.46
59043;BME280;44826;51.596;5.624;2023-02-04T07:57:39;103483.38;;;5.46;96.67
59043;BME280;44826;51.596;5.624;2023-02-04T08:00:04;103491.25;;;5.50;96.26
59043;BME280;44826;51.596;5.624;2023-02-04T08:02:30;103499.00;;;5.50;96.13
59043;BME280;44826;51.596;5.624;2023-02-04T08:04:55;103499.81;;;5.49;96.51
59043;BME280;44826;51.596;5.624;2023-02-04T08:07:21;103506.75;;;5.50;96.06
59043;BME280;44826;51.596;5.624;2023-02-04T08:09:46;103506.78;;;5.51;96.44
59043;BME280;44826;51.596;5.624;2023-02-04T08:12:11;103504.22;;;5.51;96.69
59043;BME280;44826;51.596;5.624;2023-02-04T08:14:37;103502.56;;;5.53;96.25
59043;BME280;44826;51.596;5.624;2023-02-04T08:17:02;103507.03;;;5.57;96.17
59043;BME280;44826;51.596;5.624;2023-02-04T08:19:27;103514.91;;;5.60;96.53
59043;BME280;44826;51.596;5.624;2023-02-04T08:21:52;103520.19;;;5.64;96.37
59043;BME280;44826;51.596;5.624;2023-02-04T08:24:18;103515.19;;;5.68;96.90
59043;BME280;44826;51.596;5.624;2023-02-04T08:26:43;103513.59;;;5.72;96.38
59043;BME280;44826;51.596;5.624;2023-02-04T08:29:09;103520.66;;;5.76;96.83
59043;BME280;44826;51.596;5.624;2023-02-04T08:31:35;103517.38;;;5.80;96.78
59043;BME280;44826;51.596;5.624;2023-02-04T08:34:01;103520.03;;;5.83;96.85
59043;BME280;44826;51.596;5.624;2023-02-04T08:36:27;103517.56;;;5.86;96.92
59043;BME280;44826;51.596;5.624;2023-02-04T08:38:52;103513.41;;;5.90;96.47
59043;BME280;44826;51.596;5.624;2023-02-04T08:41:17;103522.09;;;5.92;96.34
59043;BME280;44826;51.596;5.624;2023-02-04T08:43:43;103519.47;;;5.90;96.09
59043;BME280;44826;51.596;5.624;2023-02-04T08:46:08;103523.84;;;5.93;96.18
59043;BME280;44826;51.596;5.624;2023-02-04T08:48:33;103519.59;;;5.93;96.47
59043;BME280;44826;51.596;5.624;2023-02-04T08:50:59;103530.03;;;5.97;96.72
59043;BME280;44826;51.596;5.624;2023-02-04T08:53:24;103536.22;;;6.00;96.78
59043;BME280;44826;51.596;5.624;2023-02-04T08:55:49;103541.56;;;6.05;96.43
59043;BME280;44826;51.596;5.624;2023-02-04T08:58:15;103541.66;;;6.08;96.70
59043;BME280;44826;51.596;5.624;2023-02-04T09:00:40;103550.38;;;6.10;96.80
59043;BME280;44826;51.596;5.624;2023-02-04T09:03:05;103537.56;;;6.13;96.70
59043;BME280;44826;51.596;5.624;2023-02-04T09:05:31;103543.75;;;6.18;96.65
59043;BME280;44826;51.596;5.624;2023-02-04T09:07:57;103543.03;;;6.22;96.49
59043;BME280;44826;51.596;5.624;2023-02-04T09:10:22;103548.34;;;6.26;96.53
59043;BME280;44826;51.596;5.624;2023-02-04T09:12:47;103547.63;;;6.30;96.74
59043;BME280;44826;51.596;5.624;2023-02-04T09:15:12;103553.78;;;6.33;96.68
59043;BME280;44826;51.596;5.624;2023-02-04T09:17:38;103551.34;;;6.38;96.46
59043;BME280;44826;51.596;5.624;2023-02-04T09:20:04;103560.09;;;6.42;96.34
59043;BME280;44826;51.596;5.624;2023-02-04T09:22:30;103558.44;;;6.44;96.09
59043;BME280;44826;51.596;5.624;2023-02-04T09:24:55;103564.63;;;6.47;96.12
59043;BME280;44826;51.596;5.624;2023-02-04T09:27:20;103553.47;;;6.48;95.89
59043;BME280;44826;51.596;5.624;2023-02-04T09:29:46;103556.13;;;6.51;96.25
59043;BME280;44826;51.596;5.624;2023-02-04T09:32:11;103562.34;;;6.57;95.92
59043;BME280;44826;51.596;5.624;2023-02-04T09:34:36;103564.25;;;6.62;95.74
59043;BME280;44826;51.596;5.624;2023-02-04T09:37:02;103564.50;;;6.68;96.00
59043;BME280;44826;51.596;5.624;2023-02-04T09:39:27;103560.28;;;6.72;96.14
59043;BME280;44826;51.596;5.624;2023-02-04T09:41:53;103567.34;;;6.76;96.20
59043;BME280;44826;51.596;5.624;2023-02-04T09:44:20;103564.97;;;6.82;95.85
59043;BME280;44826;51.596;5.624;2023-02-04T09:46:50;103574.56;;;6.87;95.70
59043;BME280;44826;51.596;5.624;2023-02-04T09:49:16;103572.19;;;6.93;95.93
59043;BME280;44826;51.596;5.624;2023-02-04T09:51:42;103574.91;;;6.96;95.43
59043;BME280;44826;51.596;5.624;2023-02-04T09:54:14;103573.25;;;6.98;95.19
59043;BME280;44826;51.596;5.624;2023-02-04T09:56:39;103574.19;;;7.00;94.94
59043;BME280;44826;51.596;5.624;2023-02-04T09:59:13;103572.56;;;7.04;95.25
59043;BME280;44826;51.596;5.624;2023-02-04T10:01:39;103580.38;;;7.05;94.50
59043;BME280;44826;51.596;5.624;2023-02-04T10:04:05;103580.38;;;7.05;93.98
59043;BME280;44826;51.596;5.624;2023-02-04T10:06:34;103581.31;;;7.07;94.11
59043;BME280;44826;51.596;5.624;2023-02-04T10:08:59;103578.94;;;7.13;94.46
59043;BME280;44826;51.596;5.624;2023-02-04T10:11:25;103580.88;;;7.21;94.08
59043;BME280;44826;51.596;5.624;2023-02-04T10:13:53;103579.34;;;7.27;93.82
59043;BME280;44826;51.596;5.624;2023-02-04T10:16:23;103580.41;;;7.33;93.67
59043;BME280;44826;51.596;5.624;2023-02-04T10:18:57;103580.50;;;7.36;92.93
59043;BME280;44826;51.596;5.624;2023-02-04T10:21:26;103577.09;;;7.37;92.16
59043;BME280;44826;51.596;5.624;2023-02-04T10:23:57;103579.72;;;7.38;92.46
59043;BME280;44826;51.596;5.624;2023-02-04T10:26:25;103573.75;;;7.41;92.55
59043;BME280;44826;51.596;5.624;2023-02-04T10:29:00;103578.16;;;7.43;91.87
59043;BME280;44826;51.596;5.624;2023-02-04T10:31:31;103574.94;;;7.51;91.97
59043;BME280;44826;51.596;5.624;2023-02-04T10:37:18;103580.38;;;7.60;91.36
59043;BME280;44826;51.596;5.624;2023-02-04T10:39:44;103583.72;;;7.56;90.49
59043;BME280;44826;51.596;5.624;2023-02-04T10:44:46;103588.06;;;7.57;89.75
59043;BME280;44826;51.596;5.624;2023-02-04T10:47:26;103583.91;;;7.62;89.80
59043;BME280;44826;51.596;5.624;2023-02-04T10:49:57;103596.28;;;7.71;89.31
59043;BME280;44826;51.596;5.624;2023-02-04T10:52:38;103594.75;;;7.78;88.17
59043;BME280;44826;51.596;5.624;2023-02-04T10:55:06;103588.59;;;7.74;87.68
59043;BME280;44826;51.596;5.624;2023-02-04T10:57:34;103587.69;;;7.73;88.38
59043;BME280;44826;51.596;5.624;2023-02-04T11:00:04;103588.63;;;7.75;88.00
59043;BME280;44826;51.596;5.624;2023-02-04T11:02:56;103592.97;;;7.77;87.65
59043;BME280;44826;51.596;5.624;2023-02-04T11:05:28;103592.13;;;7.76;87.81
59043;BME280;44826;51.596;5.624;2023-02-04T11:07:54;103586.28;;;7.83;87.84
59043;BME280;44826;51.596;5.624;2023-02-04T11:10:22;103585.66;;;7.92;87.33
59043;BME280;44826;51.596;5.624;2023-02-04T11:15:47;103595.66;;;8.09;86.44
59043;BME280;44826;51.596;5.624;2023-02-04T11:18:26;103589.84;;;8.17;87.09
59043;BME280;44826;51.596;5.624;2023-02-04T11:20:56;103588.31;;;8.24;85.82
59043;BME280;44826;51.596;5.624;2023-02-04T11:26:07;103587.47;;;8.25;84.45
59043;BME280;44826;51.596;5.624;2023-02-04T11:28:44;103583.22;;;8.27;84.41
59043;BME280;44826;51.596;5.624;2023-02-04T11:33:44;103595.78;;;8.44;84.62
59043;BME280;44826;51.596;5.624;2023-02-04T11:36:11;103581.34;;;8.52;83.08
59043;BME280;44826;51.596;5.624;2023-02-04T11:38:37;103583.25;;;8.59;82.33
59043;BME280;44826;51.596;5.624;2023-02-04T11:41:04;103580.09;;;8.70;82.10
59043;BME280;44826;51.596;5.624;2023-02-04T11:43:33;103587.19;;;8.77;82.08
59043;BME280;44826;51.596;5.624;2023-02-04T11:46:11;103577.09;;;8.89;83.06
59043;BME280;44826;51.596;5.624;2023-02-04T11:48:37;103581.63;;;8.96;82.51
59043;BME280;44826;51.596;5.624;2023-02-04T11:51:11;103581.66;;;8.98;82.10
59043;BME280;44826;51.596;5.624;2023-02-04T11:53:38;103585.06;;;8.95;80.52
59043;BME280;44826;51.596;5.624;2023-02-04T11:56:03;103584.97;;;8.92;80.91
59043;BME280;44826;51.596;5.624;2023-02-04T11:58:30;103587.66;;;8.95;80.66
59043;BME280;44826;51.596;5.624;2023-02-04T12:00:55;103580.78;;;8.98;80.06
59043;BME280;44826;51.596;5.624;2023-02-04T12:03:23;103579.94;;;8.99;80.06
59043;BME280;44826;51.596;5.624;2023-02-04T12:05:50;103582.53;;;8.99;80.14
59043;BME280;44826;51.596;5.624;2023-02-04T12:13:20;103584.88;;;9.24;78.86
59043;BME280;44826;51.596;5.624;2023-02-04T12:16:04;103583.44;;;9.36;79.81
59043;BME280;44826;51.596;5.624;2023-02-04T12:18:30;103585.25;;;9.40;77.09
59043;BME280;44826;51.596;5.624;2023-02-04T12:20:56;103581.88;;;9.44;77.65
59043;BME280;44826;51.596;5.624;2023-02-04T12:23:23;103578.53;;;9.48;77.21
59043;BME280;44826;51.596;5.624;2023-02-04T12:25:49;103582.16;;;9.56;76.63
59043;BME280;44826;51.596;5.624;2023-02-04T12:28:15;103584.06;;;9.62;73.85
59043;BME280;44826;51.596;5.624;2023-02-04T12:30:40;103590.19;;;9.66;73.32
59043;BME280;44826;51.596;5.624;2023-02-04T12:33:06;103577.34;;;9.72;74.02
59043;BME280;44826;51.596;5.624;2023-02-04T12:35:31;103574.84;;;9.77;74.07
59043;BME280;44826;51.596;5.624;2023-02-04T12:37:57;103586.09;;;9.77;74.11
59043;BME280;44826;51.596;5.624;2023-02-04T12:40:22;103587.75;;;9.72;73.98
59043;BME280;44826;51.596;5.624;2023-02-04T12:42:47;103587.69;;;9.70;72.96
59043;BME280;44826;51.596;5.624;2023-02-04T12:45:14;103587.75;;;9.72;73.28
59043;BME280;44826;51.596;5.624;2023-02-04T12:47:40;103587.84;;;9.78;73.89
59043;BME280;44826;51.596;5.624;2023-02-04T12:50:06;103593.19;;;9.84;73.55
59043;BME280;44826;51.596;5.624;2023-02-04T12:52:32;103589.81;;;9.89;73.80
59043;BME280;44826;51.596;5.624;2023-02-04T12:54:57;103589.88;;;9.92;73.68
59043;BME280;44826;51.596;5.624;2023-02-04T12:57:24;103592.63;;;9.99;75.21
59043;BME280;44826;51.596;5.624;2023-02-04T12:59:49;103593.66;;;10.06;74.21
59043;BME280;44826;51.596;5.624;2023-02-04T13:02:14;103597.09;;;10.05;73.11
59043;BME280;44826;51.596;5.624;2023-02-04T13:04:40;103589.34;;;10.08;74.35
59043;BME280;44826;51.596;5.624;2023-02-04T13:07:06;103594.66;;;10.13;73.55
59043;BME280;44826;51.596;5.624;2023-02-04T13:09:32;103586.09;;;10.18;73.51
59043;BME280;44826;51.596;5.624;2023-02-04T13:11:58;103590.56;;;10.26;73.88
59043;BME280;44826;51.596;5.624;2023-02-04T13:14:23;103588.03;;;10.29;73.07